sensor_id;sensor_type;location;lat;lon;timestamp;temperature;humidity
45685;DHT22;46836;48.388;16.210;2022-07-29T00:01:01;22.30;99.90
45685;DHT22;46836;48.388;16.210;2022-07-29T00:03:28;22.30;99.90
45685;DHT22;46836;48.388;16.210;2022-07-29T00:05:56;22.20;99.90
45685;DHT22;46836;48.388;16.210;2022-07-29T00:08:23;22.20;99.90
45685;DHT22;46836;48.388;16.210;2022-07-29T00:10:50;22.20;99.90
45685;DHT22;46836;48.388;16.210;2022-07-29T00:13:17;22.20;99.90
45685;DHT22;46836;48.388;16.210;2022-07-29T00:15:58;22.10;99.90
45685;DHT22;46836;48.388;16.210;2022-07-29T00:18:31;22.10;99.90
45685;DHT22;46836;48.388;16.210;2022-07-29T00:20:59;22.00;99.90
45685;DHT22;46836;48.388;16.210;2022-07-29T00:23:26;22.00;99.90
45685;DHT22;46836;48.388;16.210;2022-07-29T00:25:53;21.90;99.90
45685;DHT22;46836;48.388;16.210;2022-07-29T00:28:20;21.90;99.90
45685;DHT22;46836;48.388;16.210;2022-07-29T00:30:47;21.90;99.90
45685;DHT22;46836;48.388;16.210;2022-07-29T00:33:14;21.90;99.90
45685;DHT22;46836;48.388;16.210;2022-07-29T00:35:41;21.90;99.90
45685;DHT22;46836;48.388;16.210;2022-07-29T00:38:16;21.80;99.90
45685;DHT22;46836;48.388;16.210;2022-07-29T00:40:44;21.80;99.90
45685;DHT22;46836;48.388;16.210;2022-07-29T00:43:13;21.70;99.90
45685;DHT22;46836;48.388;16.210;2022-07-29T00:45:43;21.70;99.90
45685;DHT22;46836;48.388;16.210;2022-07-29T00:48:10;21.70;99.90
45685;DHT22;46836;48.388;16.210;2022-07-29T00:50:38;21.60;99.90
45685;DHT22;46836;48.388;16.210;2022-07-29T00:53:07;21.60;99.90
45685;DHT22;46836;48.388;16.210;2022-07-29T00:55:35;21.50;99.90
45685;DHT22;46836;48.388;16.210;2022-07-29T00:58:02;21.50;99.90
45685;DHT22;46836;48.388;16.210;2022-07-29T01:00:30;21.50;99.90
45685;DHT22;46836;48.388;16.210;2022-07-29T01:02:57;21.50;99.90
45685;DHT22;46836;48.388;16.210;2022-07-29T01:05:26;21.40;99.90
45685;DHT22;46836;48.388;16.210;2022-07-29T01:08:15;21.30;99.90
45685;DHT22;46836;48.388;16.210;2022-07-29T01:10:44;21.30;99.90
45685;DHT22;46836;48.388;16.210;2022-07-29T01:13:14;21.30;99.90
45685;DHT22;46836;48.388;16.210;2022-07-29T01:15:51;21.20;99.90
45685;DHT22;46836;48.388;16.210;2022-07-29T01:18:34;21.20;99.90
45685;DHT22;46836;48.388;16.210;2022-07-29T01:21:34;21.20;99.90
45685;DHT22;46836;48.388;16.210;2022-07-29T01:24:11;21.20;99.90
45685;DHT22;46836;48.388;16.210;2022-07-29T01:29:55;21.10;99.90
45685;DHT22;46836;48.388;16.210;2022-07-29T01:32:26;21.00;99.90
45685;DHT22;46836;48.388;16.210;2022-07-29T01:35:06;21.00;99.90
45685;DHT22;46836;48.388;16.210;2022-07-29T01:40:40;20.90;99.90
45685;DHT22;46836;48.388;16.210;2022-07-29T01:43:13;20.80;99.90
45685;DHT22;46836;48.388;16.210;2022-07-29T01:45:56;20.80;99.90
45685;DHT22;46836;48.388;16.210;2022-07-29T01:48:37;20.70;99.90
45685;DHT22;46836;48.388;16.210;2022-07-29T01:51:09;20.70;99.90
45685;DHT22;46836;48.388;16.210;2022-07-29T01:53:54;20.70;99.90
45685;DHT22;46836;48.388;16.210;2022-07-29T01:56:23;20.70;99.90
45685;DHT22;46836;48.388;16.210;2022-07-29T01:58:52;20.60;99.90
45685;DHT22;46836;48.388;16.210;2022-07-29T02:01:21;20.60;99.90
45685;DHT22;46836;48.388;16.210;2022-07-29T02:03:53;20.60;99.90
45685;DHT22;46836;48.388;16.210;2022-07-29T02:06:22;20.60;99.90
45685;DHT22;46836;48.388;16.210;2022-07-29T02:08:51;20.60;99.90
45685;DHT22;46836;48.388;16.210;2022-07-29T02:11:19;20.60;99.90
45685;DHT22;46836;48.388;16.210;2022-07-29T02:13:48;20.60;99.90
45685;DHT22;46836;48.388;16.210;2022-07-29T02:16:17;20.50;99.90
45685;DHT22;46836;48.388;16.210;2022-07-29T02:18:48;20.50;99.90
45685;DHT22;46836;48.388;16.210;2022-07-29T02:21:23;20.40;99.90
45685;DHT22;46836;48.388;16.210;2022-07-29T02:23:52;20.50;99.90
45685;DHT22;46836;48.388;16.210;2022-07-29T02:26:20;20.40;99.90
45685;DHT22;46836;48.388;16.210;2022-07-29T02:28:51;20.40;99.90
45685;DHT22;46836;48.388;16.210;2022-07-29T02:31:23;20.40;99.90
45685;DHT22;46836;48.388;16.210;2022-07-29T02:33:52;20.40;99.90
45685;DHT22;46836;48.388;16.210;2022-07-29T02:36:22;20.40;99.90
45685;DHT22;46836;48.388;16.210;2022-07-29T02:38:50;20.40;99.90
45685;DHT22;46836;48.388;16.210;2022-07-29T02:44:10;20.40;99.90
45685;DHT22;46836;48.388;16.210;2022-07-29T02:46:50;20.30;99.90
45685;DHT22;46836;48.388;16.210;2022-07-29T02:52:18;20.30;99.90
45685;DHT22;46836;48.388;16.210;2022-07-29T02:54:52;20.20;99.90
45685;DHT22;46836;48.388;16.210;2022-07-29T02:57:22;20.20;99.90
45685;DHT22;46836;48.388;16.210;2022-07-29T02:59:57;20.10;99.90
45685;DHT22;46836;48.388;16.210;2022-07-29T03:02:27;20.10;99.90
45685;DHT22;46836;48.388;16.210;2022-07-29T03:04:58;20.10;99.90
45685;DHT22;46836;48.388;16.210;2022-07-29T03:07:26;20.00;99.90
45685;DHT22;46836;48.388;16.210;2022-07-29T03:09:54;20.00;99.90
45685;DHT22;46836;48.388;16.210;2022-07-29T03:12:23;20.00;99.90
45685;DHT22;46836;48.388;16.210;2022-07-29T03:14:51;20.00;99.90
45685;DHT22;46836;48.388;16.210;2022-07-29T03:17:19;20.00;99.90
45685;DHT22;46836;48.388;16.210;2022-07-29T03:19:48;20.00;99.90
45685;DHT22;46836;48.388;16.210;2022-07-29T03:22:16;20.00;99.90
45685;DHT22;46836;48.388;16.210;2022-07-29T03:24:45;19.90;99.90
45685;DHT22;46836;48.388;16.210;2022-07-29T03:27:13;19.90;99.90
45685;DHT22;46836;48.388;16.210;2022-07-29T03:29:40;19.80;99.90
45685;DHT22;46836;48.388;16.210;2022-07-29T03:32:15;19.80;99.90
45685;DHT22;46836;48.388;16.210;2022-07-29T03:34:49;19.80;99.90
45685;DHT22;46836;48.388;16.210;2022-07-29T03:37:16;19.80;99.90
45685;DHT22;46836;48.388;16.210;2022-07-29T03:39:44;19.80;99.90
45685;DHT22;46836;48.388;16.210;2022-07-29T03:42:15;19.80;99.90
45685;DHT22;46836;48.388;16.210;2022-07-29T03:44:45;19.80;99.90
45685;DHT22;46836;48.388;16.210;2022-07-29T03:47:16;19.70;99.90
45685;DHT22;46836;48.388;16.210;2022-07-29T03:49:49;19.70;99.90
45685;DHT22;46836;48.388;16.210;2022-07-29T03:52:17;19.70;99.90
45685;DHT22;46836;48.388;16.210;2022-07-29T03:54:44;19.60;99.90
45685;DHT22;46836;48.388;16.210;2022-07-29T03:57:12;19.60;99.90
45685;DHT22;46836;48.388;16.210;2022-07-29T03:59:40;19.50;99.90
45685;DHT22;46836;48.388;16.210;2022-07-29T04:02:09;19.40;99.90
45685;DHT22;46836;48.388;16.210;2022-07-29T04:04:37;19.40;99.90
45685;DHT22;46836;48.388;16.210;2022-07-29T04:07:05;19.30;99.90
45685;DHT22;46836;48.388;16.210;2022-07-29T04:09:32;19.30;99.90
45685;DHT22;46836;48.388;16.210;2022-07-29T04:11:59;19.20;99.90
45685;DHT22;46836;48.388;16.210;2022-07-29T04:14:33;19.30;99.90
45685;DHT22;46836;48.388;16.210;2022-07-29T04:17:02;19.30;99.90
45685;DHT22;46836;48.388;16.210;2022-07-29T04:19:30;19.30;99.90
45685;DHT22;46836;48.388;16.210;2022-07-29T04:21:59;19.40;99.90
45685;DHT22;46836;48.388;16.210;2022-07-29T04:24:27;19.40;99.90
45685;DHT22;46836;48.388;16.210;2022-07-29T04:26:54;19.40;99.90
45685;DHT22;46836;48.388;16.210;2022-07-29T04:29:21;19.40;99.90
45685;DHT22;46836;48.388;16.210;2022-07-29T04:31:48;19.40;99.90
45685;DHT22;46836;48.388;16.210;2022-07-29T04:34:15;19.50;99.90
45685;DHT22;46836;48.388;16.210;2022-07-29T04:36:43;19.50;99.90
45685;DHT22;46836;48.388;16.210;2022-07-29T04:39:10;19.50;99.90
45685;DHT22;46836;48.388;16.210;2022-07-29T04:41:37;19.50;99.90
45685;DHT22;46836;48.388;16.210;2022-07-29T04:44:04;19.60;99.90
45685;DHT22;46836;48.388;16.210;2022-07-29T04:46:33;19.60;99.90
45685;DHT22;46836;48.388;16.210;2022-07-29T04:49:01;19.60;99.90
45685;DHT22;46836;48.388;16.210;2022-07-29T04:51:28;19.60;99.90
45685;DHT22;46836;48.388;16.210;2022-07-29T04:53:55;19.60;99.90
45685;DHT22;46836;48.388;16.210;2022-07-29T04:56:22;19.70;99.90
45685;DHT22;46836;48.388;16.210;2022-07-29T04:58:50;19.70;99.90
45685;DHT22;46836;48.388;16.210;2022-07-29T05:01:17;19.70;99.90
45685;DHT22;46836;48.388;16.210;2022-07-29T05:03:45;19.70;99.90
45685;DHT22;46836;48.388;16.210;2022-07-29T05:06:12;19.70;99.90
45685;DHT22;46836;48.388;16.210;2022-07-29T05:08:39;19.70;99.90
45685;DHT22;46836;48.388;16.210;2022-07-29T05:11:07;19.80;99.90
45685;DHT22;46836;48.388;16.210;2022-07-29T05:13:38;20.50;99.90
45685;DHT22;46836;48.388;16.210;2022-07-29T05:16:13;23.90;99.90
45685;DHT22;46836;48.388;16.210;2022-07-29T05:18:41;26.20;99.90
45685;DHT22;46836;48.388;16.210;2022-07-29T05:21:09;27.90;99.90
45685;DHT22;46836;48.388;16.210;2022-07-29T05:23:36;29.30;99.90
45685;DHT22;46836;48.388;16.210;2022-07-29T05:26:03;30.00;99.90
45685;DHT22;46836;48.388;16.210;2022-07-29T05:28:33;29.00;99.90
45685;DHT22;46836;48.388;16.210;2022-07-29T05:31:01;26.90;99.90
45685;DHT22;46836;48.388;16.210;2022-07-29T05:33:29;25.40;99.90
45685;DHT22;46836;48.388;16.210;2022-07-29T05:36:03;24.30;99.90
45685;DHT22;46836;48.388;16.210;2022-07-29T05:38:34;23.40;99.90
45685;DHT22;46836;48.388;16.210;2022-07-29T05:41:02;22.80;99.90
45685;DHT22;46836;48.388;16.210;2022-07-29T05:43:30;22.30;99.90
45685;DHT22;46836;48.388;16.210;2022-07-29T05:45:57;22.10;99.90
45685;DHT22;46836;48.388;16.210;2022-07-29T05:48:25;22.00;99.90
45685;DHT22;46836;48.388;16.210;2022-07-29T05:50:52;21.90;99.90
45685;DHT22;46836;48.388;16.210;2022-07-29T05:53:19;21.80;99.90
45685;DHT22;46836;48.388;16.210;2022-07-29T05:55:48;21.80;99.90
45685;DHT22;46836;48.388;16.210;2022-07-29T05:58:15;21.80;99.90
45685;DHT22;46836;48.388;16.210;2022-07-29T06:00:42;21.90;99.90
45685;DHT22;46836;48.388;16.210;2022-07-29T06:03:09;22.00;99.90
45685;DHT22;46836;48.388;16.210;2022-07-29T06:05:36;22.00;99.90
45685;DHT22;46836;48.388;16.210;2022-07-29T06:08:03;22.10;99.90
45685;DHT22;46836;48.388;16.210;2022-07-29T06:10:38;22.20;99.90
45685;DHT22;46836;48.388;16.210;2022-07-29T06:13:05;22.20;99.90
45685;DHT22;46836;48.388;16.210;2022-07-29T06:15:32;22.30;99.90
45685;DHT22;46836;48.388;16.210;2022-07-29T06:18:00;22.30;99.90
45685;DHT22;46836;48.388;16.210;2022-07-29T06:20:29;22.50;99.90
45685;DHT22;46836;48.388;16.210;2022-07-29T06:22:57;22.60;99.90
45685;DHT22;46836;48.388;16.210;2022-07-29T06:25:25;22.80;99.90
45685;DHT22;46836;48.388;16.210;2022-07-29T06:27:52;23.00;99.90
45685;DHT22;46836;48.388;16.210;2022-07-29T06:30:19;23.20;99.90
45685;DHT22;46836;48.388;16.210;2022-07-29T06:32:46;23.30;99.90
45685;DHT22;46836;48.388;16.210;2022-07-29T06:35:13;23.40;99.90
45685;DHT22;46836;48.388;16.210;2022-07-29T06:38:04;23.60;99.90
45685;DHT22;46836;48.388;16.210;2022-07-29T06:40:51;23.60;99.90
45685;DHT22;46836;48.388;16.210;2022-07-29T06:46:00;23.70;99.90
45685;DHT22;46836;48.388;16.210;2022-07-29T06:48:29;23.70;99.90
45685;DHT22;46836;48.388;16.210;2022-07-29T06:50:56;23.60;99.90
45685;DHT22;46836;48.388;16.210;2022-07-29T06:53:23;23.60;99.90
45685;DHT22;46836;48.388;16.210;2022-07-29T06:55:50;23.70;99.90
45685;DHT22;46836;48.388;16.210;2022-07-29T06:58:17;23.60;99.90
45685;DHT22;46836;48.388;16.210;2022-07-29T07:00:47;23.50;99.90
45685;DHT22;46836;48.388;16.210;2022-07-29T07:03:16;23.40;99.90
45685;DHT22;46836;48.388;16.210;2022-07-29T07:05:44;23.30;99.90
45685;DHT22;46836;48.388;16.210;2022-07-29T07:08:12;23.30;99.90
45685;DHT22;46836;48.388;16.210;2022-07-29T07:10:39;23.30;99.90
45685;DHT22;46836;48.388;16.210;2022-07-29T07:13:06;23.30;99.90
45685;DHT22;46836;48.388;16.210;2022-07-29T07:15:35;23.30;99.90
45685;DHT22;46836;48.388;16.210;2022-07-29T07:18:06;23.20;99.90
45685;DHT22;46836;48.388;16.210;2022-07-29T07:20:34;23.10;99.90
45685;DHT22;46836;48.388;16.210;2022-07-29T07:23:01;23.00;99.90
45685;DHT22;46836;48.388;16.210;2022-07-29T07:25:28;22.90;99.90
45685;DHT22;46836;48.388;16.210;2022-07-29T07:27:55;22.80;99.90
45685;DHT22;46836;48.388;16.210;2022-07-29T07:30:22;22.70;99.90
45685;DHT22;46836;48.388;16.210;2022-07-29T07:32:49;22.70;99.90
45685;DHT22;46836;48.388;16.210;2022-07-29T07:35:16;22.70;99.90
45685;DHT22;46836;48.388;16.210;2022-07-29T07:37:43;22.70;99.90
45685;DHT22;46836;48.388;16.210;2022-07-29T07:40:12;22.80;99.90
45685;DHT22;46836;48.388;16.210;2022-07-29T07:42:45;22.80;99.90
45685;DHT22;46836;48.388;16.210;2022-07-29T07:45:12;22.90;99.90
45685;DHT22;46836;48.388;16.210;2022-07-29T07:47:42;23.00;99.90
45685;DHT22;46836;48.388;16.210;2022-07-29T07:50:12;23.10;99.90
45685;DHT22;46836;48.388;16.210;2022-07-29T07:52:50;23.20;99.90
45685;DHT22;46836;48.388;16.210;2022-07-29T07:55:18;23.20;99.90
45685;DHT22;46836;48.388;16.210;2022-07-29T07:57:45;23.30;99.90
45685;DHT22;46836;48.388;16.210;2022-07-29T08:00:13;23.40;99.90
45685;DHT22;46836;48.388;16.210;2022-07-29T08:02:41;23.60;99.90
45685;DHT22;46836;48.388;16.210;2022-07-29T08:05:10;23.70;99.90
45685;DHT22;46836;48.388;16.210;2022-07-29T08:07:39;23.80;99.90
45685;DHT22;46836;48.388;16.210;2022-07-29T08:10:06;23.90;99.90
45685;DHT22;46836;48.388;16.210;2022-07-29T08:12:34;24.00;99.90
45685;DHT22;46836;48.388;16.210;2022-07-29T08:15:01;24.10;99.90
45685;DHT22;46836;48.388;16.210;2022-07-29T08:17:28;24.30;99.90
45685;DHT22;46836;48.388;16.210;2022-07-29T08:20:01;24.50;99.90
45685;DHT22;46836;48.388;16.210;2022-07-29T08:22:28;24.60;99.90
45685;DHT22;46836;48.388;16.210;2022-07-29T08:24:55;24.70;99.90
45685;DHT22;46836;48.388;16.210;2022-07-29T08:27:23;24.70;99.90
45685;DHT22;46836;48.388;16.210;2022-07-29T08:30:10;24.90;99.90
45685;DHT22;46836;48.388;16.210;2022-07-29T08:32:38;25.00;99.90
45685;DHT22;46836;48.388;16.210;2022-07-29T08:35:23;25.30;99.90
45685;DHT22;46836;48.388;16.210;2022-07-29T08:37:51;25.50;99.90
45685;DHT22;46836;48.388;16.210;2022-07-29T08:40:19;25.60;99.90
45685;DHT22;46836;48.388;16.210;2022-07-29T08:42:59;25.70;99.90
45685;DHT22;46836;48.388;16.210;2022-07-29T08:45:45;25.80;99.90
45685;DHT22;46836;48.388;16.210;2022-07-29T08:48:18;25.90;99.90
45685;DHT22;46836;48.388;16.210;2022-07-29T08:50:46;25.80;99.90
45685;DHT22;46836;48.388;16.210;2022-07-29T08:53:16;25.90;99.90
45685;DHT22;46836;48.388;16.210;2022-07-29T08:55:48;25.80;99.90
45685;DHT22;46836;48.388;16.210;2022-07-29T08:58:17;25.60;99.90
45685;DHT22;46836;48.388;16.210;2022-07-29T09:00:54;25.50;99.90
45685;DHT22;46836;48.388;16.210;2022-07-29T09:03:26;25.50;99.90
45685;DHT22;46836;48.388;16.210;2022-07-29T09:05:54;25.40;99.90
45685;DHT22;46836;48.388;16.210;2022-07-29T09:08:22;25.30;99.90
45685;DHT22;46836;48.388;16.210;2022-07-29T09:10:49;25.30;99.90
45685;DHT22;46836;48.388;16.210;2022-07-29T09:13:18;25.20;99.90
45685;DHT22;46836;48.388;16.210;2022-07-29T09:15:45;25.20;99.90
45685;DHT22;46836;48.388;16.210;2022-07-29T09:18:12;25.10;99.90
45685;DHT22;46836;48.388;16.210;2022-07-29T09:20:56;25.00;99.90
45685;DHT22;46836;48.388;16.210;2022-07-29T09:24:06;24.90;99.90
45685;DHT22;46836;48.388;16.210;2022-07-29T09:26:43;24.90;99.90
45685;DHT22;46836;48.388;16.210;2022-07-29T09:31:44;24.90;99.90
45685;DHT22;46836;48.388;16.210;2022-07-29T09:34:15;24.90;99.90
45685;DHT22;46836;48.388;16.210;2022-07-29T09:36:48;24.90;99.90
45685;DHT22;46836;48.388;16.210;2022-07-29T09:39:29;24.90;99.90
45685;DHT22;46836;48.388;16.210;2022-07-29T09:41:59;24.90;99.90
45685;DHT22;46836;48.388;16.210;2022-07-29T09:44:26;24.90;99.90
45685;DHT22;46836;48.388;16.210;2022-07-29T09:47:02;24.90;99.90
45685;DHT22;46836;48.388;16.210;2022-07-29T09:50:19;24.90;99.90
45685;DHT22;46836;48.388;16.210;2022-07-29T09:52:21;24.90;99.90
45685;DHT22;46836;48.388;16.210;2022-07-29T09:54:48;24.80;99.90
45685;DHT22;46836;48.388;16.210;2022-07-29T09:57:24;24.80;99.90
45685;DHT22;46836;48.388;16.210;2022-07-29T10:00:11;24.80;99.90
45685;DHT22;46836;48.388;16.210;2022-07-29T10:02:41;24.70;99.90
45685;DHT22;46836;48.388;16.210;2022-07-29T10:05:22;24.60;99.90
45685;DHT22;46836;48.388;16.210;2022-07-29T10:07:55;24.60;99.90
45685;DHT22;46836;48.388;16.210;2022-07-29T10:12:58;24.60;99.90
45685;DHT22;46836;48.388;16.210;2022-07-29T10:15:36;24.60;99.90
45685;DHT22;46836;48.388;16.210;2022-07-29T10:18:06;24.60;99.90
45685;DHT22;46836;48.388;16.210;2022-07-29T10:20:34;24.70;99.90
45685;DHT22;46836;48.388;16.210;2022-07-29T10:23:02;24.70;99.90
45685;DHT22;46836;48.388;16.210;2022-07-29T10:25:31;24.70;99.90
45685;DHT22;46836;48.388;16.210;2022-07-29T10:27:58;24.70;99.90
45685;DHT22;46836;48.388;16.210;2022-07-29T10:30:26;24.70;99.90
45685;DHT22;46836;48.388;16.210;2022-07-29T10:41:47;24.80;99.90
45685;DHT22;46836;48.388;16.210;2022-07-29T10:44:22;24.80;99.90
45685;DHT22;46836;48.388;16.210;2022-07-29T10:46:51;24.90;99.90
45685;DHT22;46836;48.388;16.210;2022-07-29T10:49:20;25.00;99.90
45685;DHT22;46836;48.388;16.210;2022-07-29T10:52:04;25.00;99.90
45685;DHT22;46836;48.388;16.210;2022-07-29T10:59:41;25.20;99.90
45685;DHT22;46836;48.388;16.210;2022-07-29T11:05:09;25.40;99.90
45685;DHT22;46836;48.388;16.210;2022-07-29T11:07:39;25.60;99.90
45685;DHT22;46836;48.388;16.210;2022-07-29T11:15:13;26.20;99.90
45685;DHT22;46836;48.388;16.210;2022-07-29T11:20:44;26.90;99.90
45685;DHT22;46836;48.388;16.210;2022-07-29T11:23:20;27.00;99.90
45685;DHT22;46836;48.388;16.210;2022-07-29T11:31:42;27.10;99.90
45685;DHT22;46836;48.388;16.210;2022-07-29T11:39:37;27.20;99.90
45685;DHT22;46836;48.388;16.210;2022-07-29T11:45:09;27.40;99.90
45685;DHT22;46836;48.388;16.210;2022-07-29T11:47:58;27.50;99.90
45685;DHT22;46836;48.388;16.210;2022-07-29T11:50:46;27.60;99.90
45685;DHT22;46836;48.388;16.210;2022-07-29T11:53:14;27.70;99.90
45685;DHT22;46836;48.388;16.210;2022-07-29T11:55:42;27.80;99.90
45685;DHT22;46836;48.388;16.210;2022-07-29T11:58:21;28.00;99.90
45685;DHT22;46836;48.388;16.210;2022-07-29T12:00:51;28.10;99.90
45685;DHT22;46836;48.388;16.210;2022-07-29T12:03:28;28.50;99.90
45685;DHT22;46836;48.388;16.210;2022-07-29T12:06:02;28.80;99.90
45685;DHT22;46836;48.388;16.210;2022-07-29T12:08:29;28.80;99.90
45685;DHT22;46836;48.388;16.210;2022-07-29T12:10:56;29.00;99.90
45685;DHT22;46836;48.388;16.210;2022-07-29T12:13:24;29.20;99.90
45685;DHT22;46836;48.388;16.210;2022-07-29T12:16:03;29.20;99.90
45685;DHT22;46836;48.388;16.210;2022-07-29T12:18:31;29.40;99.90
45685;DHT22;46836;48.388;16.210;2022-07-29T12:21:00;29.50;99.90
45685;DHT22;46836;48.388;16.210;2022-07-29T12:23:32;29.70;99.90
45685;DHT22;46836;48.388;16.210;2022-07-29T12:26:04;29.60;99.90
45685;DHT22;46836;48.388;16.210;2022-07-29T12:28:39;29.70;99.90
45685;DHT22;46836;48.388;16.210;2022-07-29T12:31:12;29.80;99.90
45685;DHT22;46836;48.388;16.210;2022-07-29T12:33:39;29.80;99.90
45685;DHT22;46836;48.388;16.210;2022-07-29T12:36:06;29.50;99.90
45685;DHT22;46836;48.388;16.210;2022-07-29T12:38:43;29.40;99.90
45685;DHT22;46836;48.388;16.210;2022-07-29T12:41:11;29.30;99.90
45685;DHT22;46836;48.388;16.210;2022-07-29T12:43:54;29.30;99.90
45685;DHT22;46836;48.388;16.210;2022-07-29T12:46:21;29.30;99.90
45685;DHT22;46836;48.388;16.210;2022-07-29T12:48:53;29.20;99.90
45685;DHT22;46836;48.388;16.210;2022-07-29T12:51:39;29.20;99.90
45685;DHT22;46836;48.388;16.210;2022-07-29T12:54:11;29.10;99.90
45685;DHT22;46836;48.388;16.210;2022-07-29T12:56:41;29.00;99.90
45685;DHT22;46836;48.388;16.210;2022-07-29T12:59:18;28.90;99.90
45685;DHT22;46836;48.388;16.210;2022-07-29T13:01:48;28.70;99.90
45685;DHT22;46836;48.388;16.210;2022-07-29T13:04:31;28.60;99.90
45685;DHT22;46836;48.388;16.210;2022-07-29T13:07:04;28.50;99.90
45685;DHT22;46836;48.388;16.210;2022-07-29T13:09:41;28.50;99.90
45685;DHT22;46836;48.388;16.210;2022-07-29T13:12:11;28.50;99.90
45685;DHT22;46836;48.388;16.210;2022-07-29T13:14:40;28.40;99.90
45685;DHT22;46836;48.388;16.210;2022-07-29T13:17:21;28.30;99.90
45685;DHT22;46836;48.388;16.210;2022-07-29T13:20:08;28.10;99.90
45685;DHT22;46836;48.388;16.210;2022-07-29T13:22:39;28.10;99.90
45685;DHT22;46836;48.388;16.210;2022-07-29T13:25:07;27.90;99.90
45685;DHT22;46836;48.388;16.210;2022-07-29T13:27:37;27.70;99.90
45685;DHT22;46836;48.388;16.210;2022-07-29T13:30:07;27.50;99.90
45685;DHT22;46836;48.388;16.210;2022-07-29T13:32:35;27.30;99.90
45685;DHT22;46836;48.388;16.210;2022-07-29T13:35:05;27.10;99.90
45685;DHT22;46836;48.388;16.210;2022-07-29T13:37:34;27.00;99.90
45685;DHT22;46836;48.388;16.210;2022-07-29T13:40:06;26.80;99.90
45685;DHT22;46836;48.388;16.210;2022-07-29T13:42:34;26.70;99.90
45685;DHT22;46836;48.388;16.210;2022-07-29T13:45:01;26.70;99.90
45685;DHT22;46836;48.388;16.210;2022-07-29T13:47:29;26.60;99.90
45685;DHT22;46836;48.388;16.210;2022-07-29T13:50:05;26.60;99.90
45685;DHT22;46836;48.388;16.210;2022-07-29T13:52:37;26.60;99.90
45685;DHT22;46836;48.388;16.210;2022-07-29T13:55:05;26.50;99.90
45685;DHT22;46836;48.388;16.210;2022-07-29T13:57:32;26.40;99.90
45685;DHT22;46836;48.388;16.210;2022-07-29T13:59:59;26.30;99.90
45685;DHT22;46836;48.388;16.210;2022-07-29T14:02:26;26.20;99.90
45685;DHT22;46836;48.388;16.210;2022-07-29T14:04:54;26.10;99.90
45685;DHT22;46836;48.388;16.210;2022-07-29T14:07:22;25.90;99.90
45685;DHT22;46836;48.388;16.210;2022-07-29T14:09:50;25.80;99.90
45685;DHT22;46836;48.388;16.210;2022-07-29T14:12:17;25.70;99.90
45685;DHT22;46836;48.388;16.210;2022-07-29T14:14:44;25.50;99.90
45685;DHT22;46836;48.388;16.210;2022-07-29T14:17:13;25.40;99.90
45685;DHT22;46836;48.388;16.210;2022-07-29T14:19:40;25.20;99.90
45685;DHT22;46836;48.388;16.210;2022-07-29T14:22:08;25.10;99.90
45685;DHT22;46836;48.388;16.210;2022-07-29T14:24:37;25.00;99.90
45685;DHT22;46836;48.388;16.210;2022-07-29T14:27:06;24.90;99.90
45685;DHT22;46836;48.388;16.210;2022-07-29T14:29:33;24.90;99.90
45685;DHT22;46836;48.388;16.210;2022-07-29T14:32:08;24.80;99.90
45685;DHT22;46836;48.388;16.210;2022-07-29T14:34:37;24.70;99.90
45685;DHT22;46836;48.388;16.210;2022-07-29T14:37:05;24.70;99.90
45685;DHT22;46836;48.388;16.210;2022-07-29T14:39:34;24.70;99.90
45685;DHT22;46836;48.388;16.210;2022-07-29T14:42:10;24.60;99.90
45685;DHT22;46836;48.388;16.210;2022-07-29T14:44:39;24.60;99.90
45685;DHT22;46836;48.388;16.210;2022-07-29T14:47:08;24.60;99.90
45685;DHT22;46836;48.388;16.210;2022-07-29T14:49:35;24.50;99.90
45685;DHT22;46836;48.388;16.210;2022-07-29T14:52:02;24.50;99.90
45685;DHT22;46836;48.388;16.210;2022-07-29T14:54:30;24.60;99.90
45685;DHT22;46836;48.388;16.210;2022-07-29T14:56:57;24.60;99.90
45685;DHT22;46836;48.388;16.210;2022-07-29T14:59:25;24.70;99.90
45685;DHT22;46836;48.388;16.210;2022-07-29T15:01:53;24.80;99.90
45685;DHT22;46836;48.388;16.210;2022-07-29T15:04:20;24.80;99.90
45685;DHT22;46836;48.388;16.210;2022-07-29T15:06:48;24.80;99.90
45685;DHT22;46836;48.388;16.210;2022-07-29T15:09:15;24.70;99.90
45685;DHT22;46836;48.388;16.210;2022-07-29T15:11:42;24.80;99.90
45685;DHT22;46836;48.388;16.210;2022-07-29T15:14:09;24.80;99.90
45685;DHT22;46836;48.388;16.210;2022-07-29T15:16:37;24.90;99.90
45685;DHT22;46836;48.388;16.210;2022-07-29T15:19:08;25.00;99.90
45685;DHT22;46836;48.388;16.210;2022-07-29T15:21:36;25.00;99.90
45685;DHT22;46836;48.388;16.210;2022-07-29T15:24:17;25.10;99.90
45685;DHT22;46836;48.388;16.210;2022-07-29T15:26:45;25.20;99.90
45685;DHT22;46836;48.388;16.210;2022-07-29T15:29:13;25.20;99.90
45685;DHT22;46836;48.388;16.210;2022-07-29T15:31:40;25.30;99.90
45685;DHT22;46836;48.388;16.210;2022-07-29T15:34:07;25.30;99.90
45685;DHT22;46836;48.388;16.210;2022-07-29T15:36:35;25.20;99.90
45685;DHT22;46836;48.388;16.210;2022-07-29T15:39:19;25.00;99.90
45685;DHT22;46836;48.388;16.210;2022-07-29T15:41:46;25.10;99.90
45685;DHT22;46836;48.388;16.210;2022-07-29T15:44:14;25.20;99.90
45685;DHT22;46836;48.388;16.210;2022-07-29T15:46:41;25.30;99.90
45685;DHT22;46836;48.388;16.210;2022-07-29T15:49:27;25.30;99.90
45685;DHT22;46836;48.388;16.210;2022-07-29T15:52:16;25.30;99.90
45685;DHT22;46836;48.388;16.210;2022-07-29T15:54:51;25.20;99.90
45685;DHT22;46836;48.388;16.210;2022-07-29T15:57:18;25.10;99.90
45685;DHT22;46836;48.388;16.210;2022-07-29T15:59:45;25.00;99.90
45685;DHT22;46836;48.388;16.210;2022-07-29T16:02:12;25.00;99.90
45685;DHT22;46836;48.388;16.210;2022-07-29T16:04:39;25.00;99.90
45685;DHT22;46836;48.388;16.210;2022-07-29T16:07:06;25.10;99.90
45685;DHT22;46836;48.388;16.210;2022-07-29T16:09:33;25.40;99.90
45685;DHT22;46836;48.388;16.210;2022-07-29T16:12:00;25.60;99.90
45685;DHT22;46836;48.388;16.210;2022-07-29T16:14:30;25.90;99.90
45685;DHT22;46836;48.388;16.210;2022-07-29T16:16:57;26.20;99.90
45685;DHT22;46836;48.388;16.210;2022-07-29T16:19:29;26.40;99.90
45685;DHT22;46836;48.388;16.210;2022-07-29T16:21:56;26.60;99.90
45685;DHT22;46836;48.388;16.210;2022-07-29T16:24:25;26.70;99.90
45685;DHT22;46836;48.388;16.210;2022-07-29T16:26:55;26.80;99.90
45685;DHT22;46836;48.388;16.210;2022-07-29T16:29:23;26.80;99.90
45685;DHT22;46836;48.388;16.210;2022-07-29T16:31:50;26.90;99.90
45685;DHT22;46836;48.388;16.210;2022-07-29T16:34:18;26.90;99.90